Time;durP1;ratioP1;P1;durP2;ratioP2;P2;SDS_P1;SDS_P2;PMS_P1;PMS_P2;Temp;Humidity;BMP_temperature;BMP_pressure;BME280_temperature;BME280_humidity;BME280_pressure;Samples;Min_cycle;Max_cycle;Signal;HPM_P1;HPM_P2
2021/11/12 00:12:31;;;;;;;27.90;19.17;;;0.90;99.90;;;;;;5034153;28;20197;-69
2021/11/12 00:14:59;;;;;;;29.98;20.25;;;0.80;99.90;;;;;;5034121;28;20609;-69
2021/11/12 00:17:29;;;;;;;30.15;20.25;;;0.80;99.90;;;;;;5033498;28;20291;-68
2021/11/12 00:19:57;;;;;;;27.30;20.23;;;0.80;99.90;;;;;;5034426;28;20251;-69
2021/11/12 00:22:26;;;;;;;30.85;22.08;;;0.80;99.90;;;;;;5034054;28;20237;-70
2021/11/12 00:24:54;;;;;;;31.23;22.25;;;0.80;99.90;;;;;;5033757;28;20217;-69
2021/11/12 00:27:21;;;;;;;28.33;21.20;;;0.90;99.90;;;;;;5033428;28;20924;-70
2021/11/12 00:29:55;;;;;;;28.88;20.38;;;0.90;99.90;;;;;;5057136;23;20205;-92
2021/11/12 00:32:30;;;;;;;31.52;20.05;;;0.90;99.90;;;;;;5031801;28;20684;-93
2021/11/12 00:35:04;;;;;;;30.15;20.27;;;0.80;99.90;;;;;;5045876;28;20212;-93
2021/11/12 00:37:47;;;;;;;26.75;20.77;;;0.80;99.90;;;;;;5045187;28;20212;-92
2021/11/12 00:40:17;;;;;;;24.45;18.75;;;0.80;99.90;;;;;;5044696;28;20234;-92
2021/11/12 00:42:45;;;;;;;26.77;20.33;;;0.80;99.90;;;;;;5042565;28;20237;-92
2021/11/12 00:45:18;;;;;;;28.92;20.85;;;0.80;99.90;;;;;;5042487;28;20202;-93
2021/11/12 00:47:48;;;;;;;29.77;20.52;;;0.80;99.90;;;;;;5041779;28;20244;-92
2021/11/12 00:50:34;;;;;;;29.20;20.52;;;0.80;99.90;;;;;;5041593;28;20265;-93
2021/11/12 00:55:47;;;;;;;29.42;18.70;;;0.80;99.90;;;;;;5041829;28;20281;-93
2021/11/12 00:58:16;;;;;;;29.48;20.52;;;0.80;99.90;;;;;;5042050;28;20210;-93
2021/11/12 01:00:44;;;;;;;27.83;19.35;;;0.80;99.90;;;;;;5040693;28;20252;-93
2021/11/12 01:03:11;;;;;;;33.28;20.15;;;0.80;99.90;;;;;;5040351;28;20719;-93
2021/11/12 01:05:41;;;;;;;26.52;18.92;;;0.80;99.90;;;;;;5042036;28;20204;-93
2021/11/12 01:08:09;;;;;;;26.55;18.60;;;0.80;99.90;;;;;;5041566;28;20209;-94
2021/11/12 01:10:36;;;;;;;27.10;19.30;;;0.80;99.90;;;;;;5042847;28;20571;-93
2021/11/12 01:13:03;;;;;;;27.20;20.50;;;0.70;99.90;;;;;;5044636;28;20297;-94
2021/11/12 01:15:31;;;;;;;28.52;19.48;;;0.70;99.90;;;;;;5043699;28;20210;-93
2021/11/12 01:17:58;;;;;;;26.90;19.08;;;0.70;99.90;;;;;;5041008;28;20269;-92
2021/11/12 01:20:25;;;;;;;28.90;19.52;;;0.70;99.90;;;;;;5041029;28;20649;-94
2021/11/12 01:22:52;;;;;;;25.65;18.33;;;0.70;99.90;;;;;;5040843;28;20214;-93
2021/11/12 01:25:22;;;;;;;28.48;20.33;;;0.70;99.90;;;;;;5041046;28;20208;-94
2021/11/12 01:27:49;;;;;;;27.75;19.40;;;0.70;99.90;;;;;;5040094;28;20202;-93
2021/11/12 01:30:17;;;;;;;26.75;18.48;;;0.80;99.90;;;;;;5041540;28;20233;-94
2021/11/12 01:32:47;;;;;;;28.67;18.52;;;0.70;99.90;;;;;;5044631;28;20205;-94
2021/11/12 01:35:14;;;;;;;23.30;16.15;;;0.70;99.90;;;;;;5040461;28;20241;-94
2021/11/12 01:37:44;;;;;;;22.75;16.58;;;0.70;99.90;;;;;;5041103;28;20201;-94
2021/11/12 01:40:19;;;;;;;26.63;17.58;;;0.70;99.90;;;;;;5042037;28;20222;-93
2021/11/12 01:43:08;;;;;;;25.13;18.40;;;0.70;99.90;;;;;;5044158;28;20198;-94
2021/11/12 01:45:46;;;;;;;21.58;15.73;;;0.70;99.90;;;;;;5046383;28;20221;-93
2021/11/12 01:51:21;;;;;;;25.60;16.40;;;0.60;99.90;;;;;;4981842;28;20231;-94
2021/11/12 01:53:53;;;;;;;21.75;16.80;;;0.50;99.90;;;;;;4980855;28;20290;-94
2021/11/12 01:56:32;;;;;;;21.50;16.38;;;0.50;99.90;;;;;;5016843;28;20205;-93
2021/11/12 02:01:50;;;;;;;18.88;15.15;;;0.50;99.90;;;;;;5043756;28;20220;-94
2021/11/12 02:04:20;;;;;;;18.65;15.00;;;0.50;99.90;;;;;;5049753;28;20217;-93
2021/11/12 02:06:47;;;;;;;18.50;14.40;;;0.50;99.90;;;;;;5044896;28;20205;-94
2021/11/12 02:09:17;;;;;;;19.52;14.63;;;0.50;99.90;;;;;;5045715;28;20220;-94
2021/11/12 02:11:46;;;;;;;22.85;16.90;;;0.50;99.90;;;;;;5042510;28;20217;-94
2021/11/12 02:14:16;;;;;;;18.08;14.10;;;0.50;99.90;;;;;;5041645;28;20228;-95
2021/11/12 02:16:51;;;;;;;20.23;15.77;;;0.50;99.90;;;;;;5041706;28;20205;-94
2021/11/12 02:19:19;;;;;;;21.33;15.95;;;0.40;99.90;;;;;;5042901;28;20280;-95
2021/11/12 02:21:51;;;;;;;18.63;15.45;;;0.40;99.90;;;;;;5042350;28;20229;-94
2021/11/12 02:24:18;;;;;;;19.65;15.50;;;0.40;99.90;;;;;;5041359;28;20222;-93
2021/11/12 02:26:46;;;;;;;23.55;15.73;;;0.30;99.90;;;;;;5040527;28;20297;-94
2021/11/12 02:29:16;;;;;;;20.33;15.60;;;0.30;99.90;;;;;;5041077;28;20233;-94
2021/11/12 02:31:44;;;;;;;19.55;13.82;;;0.30;99.90;;;;;;5043135;28;20240;-94
2021/11/12 02:34:14;;;;;;;20.30;15.80;;;0.30;99.90;;;;;;5044896;28;20558;-94
2021/11/12 02:36:41;;;;;;;19.20;14.95;;;0.30;99.90;;;;;;5045572;28;20301;-94
2021/11/12 02:39:13;;;;;;;17.35;14.30;;;0.30;99.90;;;;;;5047913;28;20214;-95
2021/11/12 02:41:40;;;;;;;22.15;15.60;;;0.30;99.90;;;;;;5049088;28;20275;-94
2021/11/12 02:44:08;;;;;;;23.98;15.45;;;0.30;99.90;;;;;;5049591;28;20221;-94
2021/11/12 02:46:36;;;;;;;25.90;16.45;;;0.30;99.90;;;;;;5048004;28;20208;-94
2021/11/12 02:49:04;;;;;;;19.80;15.40;;;0.30;99.90;;;;;;5048395;28;20269;-94
2021/11/12 02:51:33;;;;;;;22.92;16.33;;;0.30;99.90;;;;;;5048264;28;20241;-95
2021/11/12 02:54:03;;;;;;;23.20;16.85;;;0.30;99.90;;;;;;5050197;28;20697;-94
2021/11/12 02:56:32;;;;;;;25.80;16.83;;;0.30;99.90;;;;;;5049766;28;20202;-94
2021/11/12 02:59:03;;;;;;;21.23;15.73;;;0.30;99.90;;;;;;5054715;28;20202;-95
2021/11/12 03:01:31;;;;;;;23.20;15.60;;;0.30;99.90;;;;;;5056546;28;20225;-93
2021/11/12 03:03:59;;;;;;;20.90;15.48;;;0.30;99.90;;;;;;5044171;28;20280;-93
2021/11/12 03:06:26;;;;;;;20.65;15.90;;;0.30;99.90;;;;;;5038176;28;20663;-93
2021/11/12 03:08:55;;;;;;;22.50;16.25;;;0.20;99.90;;;;;;5037238;28;20206;-93
2021/11/12 03:11:22;;;;;;;21.02;15.02;;;0.20;99.90;;;;;;5037009;28;20263;-93
2021/11/12 03:13:51;;;;;;;16.92;13.73;;;0.20;99.90;;;;;;5035589;28;20212;-93
2021/11/12 03:16:19;;;;;;;16.95;13.95;;;0.20;99.90;;;;;;5035688;28;20198;-93
2021/11/12 03:18:46;;;;;;;19.92;14.93;;;0.20;99.90;;;;;;5035507;28;20206;-92
2021/11/12 03:21:18;;;;;;;20.30;15.20;;;0.20;99.90;;;;;;5035937;28;20304;-94
2021/11/12 03:23:49;;;;;;;25.35;16.95;;;0.20;99.90;;;;;;5036114;28;20592;-93
2021/11/12 03:26:27;;;;;;;21.85;15.10;;;0.20;99.90;;;;;;5035720;28;20255;-94
2021/11/12 03:56:37;;;;;;;24.15;17.00;;;0.00;99.90;;;;;;5006841;28;20569;-93
2021/11/12 04:01:59;;;;;;;25.10;16.00;;;0.00;99.90;;;;;;5036324;28;20220;-94
2021/11/12 04:04:41;;;;;;;22.92;16.92;;;0.00;99.90;;;;;;5036330;28;20312;-93
2021/11/12 04:07:48;;;;;;;24.63;16.05;;;0.00;99.90;;;;;;5036094;28;20290;-93
2021/11/12 04:18:39;;;;;;;28.70;16.85;;;0.00;99.90;;;;;;5037399;28;20269;-94
2021/11/12 05:10:27;;;;;;;19.40;14.55;;;-0.10;99.90;;;;;;5021611;28;20237;-94
2021/11/12 05:13:13;;;;;;;19.45;14.25;;;-0.10;99.90;;;;;;5017951;28;20199;-94
2021/11/12 05:46:09;;;;;;;23.20;16.52;;;0.00;99.90;;;;;;5002193;28;20201;-94
2021/11/12 05:51:33;;;;;;;21.58;16.08;;;0.00;99.90;;;;;;4998067;28;20221;-91
2021/11/12 05:56:48;;;;;;;21.83;17.42;;;0.00;99.90;;;;;;4996782;28;20684;-91
2021/11/12 05:59:16;;;;;;;24.88;17.38;;;0.00;99.90;;;;;;4997741;28;20692;-91
2021/11/12 06:01:45;;;;;;;30.05;18.23;;;0.10;99.90;;;;;;4996955;28;20223;-92
2021/11/12 06:04:12;;;;;;;23.75;17.23;;;0.10;99.90;;;;;;4997155;28;20226;-91
2021/11/12 06:06:39;;;;;;;27.75;19.45;;;0.10;99.90;;;;;;4997371;28;20213;-90
2021/11/12 06:09:06;;;;;;;26.95;18.88;;;0.20;99.90;;;;;;4997149;28;20213;-90
2021/11/12 06:11:33;;;;;;;28.30;18.75;;;0.20;99.90;;;;;;4996156;28;20237;-90
2021/11/12 06:14:02;;;;;;;27.15;18.35;;;0.20;99.90;;;;;;4996652;28;20622;-91
2021/11/12 06:16:29;;;;;;;26.40;18.33;;;0.20;99.90;;;;;;4996898;28;20690;-91
2021/11/12 06:18:56;;;;;;;22.13;17.55;;;0.20;99.90;;;;;;4996899;28;20404;-90
2021/11/12 06:21:24;;;;;;;31.58;18.45;;;0.20;99.90;;;;;;4997712;28;20301;-91
2021/11/12 06:23:51;;;;;;;28.30;19.73;;;0.30;99.90;;;;;;4998475;28;20218;-90
2021/11/12 06:26:18;;;;;;;29.88;18.45;;;0.30;99.90;;;;;;4998022;28;20214;-90
2021/11/12 06:28:45;;;;;;;30.10;20.70;;;0.30;99.90;;;;;;4998703;28;20203;-91
2021/11/12 06:31:14;;;;;;;27.02;18.60;;;0.30;99.90;;;;;;5032514;22;20233;-70
2021/11/12 06:33:40;;;;;;;25.67;18.33;;;0.30;99.90;;;;;;5047201;28;20257;-71
2021/11/12 06:36:07;;;;;;;31.30;18.85;;;0.30;99.90;;;;;;5046621;28;20220;-70
2021/11/12 06:38:36;;;;;;;25.83;17.95;;;0.40;99.90;;;;;;5050255;28;20583;-71
2021/11/12 06:41:08;;;;;;;30.13;18.80;;;0.40;99.90;;;;;;5050265;28;20258;-71
2021/11/12 06:43:41;;;;;;;28.80;19.30;;;0.40;99.90;;;;;;5048424;28;20198;-72
2021/11/12 06:51:39;;;;;;;23.52;18.65;;;0.50;99.90;;;;;;5050139;28;20776;-71
2021/11/12 06:54:06;;;;;;;25.45;17.20;;;0.50;99.90;;;;;;5050674;28;20614;-71
2021/11/12 06:56:33;;;;;;;25.08;17.65;;;0.50;99.90;;;;;;5049584;28;20229;-71
2021/11/12 06:59:00;;;;;;;25.80;19.10;;;0.50;99.90;;;;;;5050593;28;20208;-71
2021/11/12 07:01:27;;;;;;;27.42;19.00;;;0.50;99.90;;;;;;5050371;28;20205;-71
2021/11/12 07:03:56;;;;;;;34.90;19.90;;;0.50;99.90;;;;;;5050027;28;20283;-71
2021/11/12 07:06:23;;;;;;;27.67;18.73;;;0.60;99.90;;;;;;5049823;28;20225;-71
2021/11/12 07:08:50;;;;;;;28.38;19.20;;;0.60;99.90;;;;;;5050464;28;20565;-71
2021/11/12 07:11:17;;;;;;;30.25;20.90;;;0.70;99.90;;;;;;5050274;28;20198;-72
2021/11/12 07:13:44;;;;;;;35.33;20.00;;;0.70;99.90;;;;;;5047138;28;20208;-71
2021/11/12 07:16:11;;;;;;;28.08;19.55;;;0.70;99.90;;;;;;5043364;28;20247;-71
2021/11/12 07:18:38;;;;;;;28.23;19.00;;;0.80;99.90;;;;;;5046325;28;20205;-71
2021/11/12 07:21:06;;;;;;;30.75;19.83;;;0.80;99.90;;;;;;5050449;28;20208;-71
2021/11/12 07:23:33;;;;;;;30.33;20.65;;;0.80;99.90;;;;;;5049763;28;20722;-71
2021/11/12 07:26:00;;;;;;;33.08;20.00;;;0.90;99.90;;;;;;5049610;28;20235;-71
2021/11/12 07:28:27;;;;;;;36.17;19.75;;;0.90;99.90;;;;;;5050095;28;20204;-71
2021/11/12 07:30:56;;;;;;;58.67;22.13;;;0.90;99.90;;;;;;5049963;28;20231;-71
2021/11/12 07:33:23;;;;;;;26.90;19.50;;;0.80;99.90;;;;;;5050016;28;20201;-71
2021/11/12 07:35:53;;;;;;;29.15;20.33;;;0.80;99.90;;;;;;5049283;28;20255;-71
2021/11/12 07:38:24;;;;;;;25.65;20.30;;;0.80;99.90;;;;;;5050023;28;20283;-71
2021/11/12 07:41:14;;;;;;;34.22;20.90;;;0.90;99.90;;;;;;5048440;28;20197;-71
2021/11/12 07:46:35;;;;;;;28.20;19.95;;;1.00;99.90;;;;;;5049410;28;20680;-71
2021/11/12 07:49:04;;;;;;;26.45;19.15;;;1.00;99.90;;;;;;5050344;28;20201;-71
2021/11/12 07:51:31;;;;;;;27.65;18.35;;;1.20;99.90;;;;;;5049788;28;20693;-71
2021/11/12 07:53:59;;;;;;;31.15;21.15;;;1.20;99.90;;;;;;5050071;28;20212;-71
2021/11/12 07:56:26;;;;;;;31.90;20.60;;;1.30;99.90;;;;;;5049231;28;20222;-71
2021/11/12 07:58:53;;;;;;;32.33;20.10;;;1.40;99.90;;;;;;5050007;28;20216;-71
2021/11/12 08:01:20;;;;;;;34.20;21.58;;;1.50;99.90;;;;;;5050139;28;20582;-72
2021/11/12 08:03:52;;;;;;;33.45;21.23;;;1.60;99.90;;;;;;5051537;28;20600;-72
2021/11/12 08:06:19;;;;;;;30.92;20.10;;;1.60;99.90;;;;;;5053736;28;20699;-72
2021/11/12 08:08:49;;;;;;;32.38;20.67;;;1.70;99.90;;;;;;5053854;28;20201;-72
2021/11/12 08:11:20;;;;;;;33.88;21.58;;;1.80;99.90;;;;;;5054197;28;20201;-72
2021/11/12 08:13:50;;;;;;;31.77;22.02;;;1.80;99.90;;;;;;5054005;28;20205;-72
2021/11/12 08:16:28;;;;;;;29.25;20.80;;;1.80;99.90;;;;;;5053216;28;20618;-72
2021/11/12 08:18:58;;;;;;;32.25;19.92;;;1.90;99.90;;;;;;5054249;28;20283;-72
2021/11/12 08:21:30;;;;;;;27.70;19.98;;;2.00;99.90;;;;;;5053976;28;20235;-73
2021/11/12 08:24:06;;;;;;;27.02;18.75;;;2.10;99.90;;;;;;5053717;28;20676;-72
2021/11/12 08:26:43;;;;;;;25.80;19.30;;;2.20;99.90;;;;;;5052830;28;20224;-72
2021/11/12 08:35:06;;;;;;;22.63;17.15;;;3.40;99.90;;;;;;5050902;28;20196;-71
2021/11/12 08:37:42;;;;;;;26.55;19.02;;;4.50;99.90;;;;;;5049920;28;20286;-71
2021/11/12 08:40:16;;;;;;;23.02;16.65;;;5.30;99.90;;;;;;5050421;28;20662;-71
2021/11/12 08:42:48;;;;;;;23.23;17.17;;;6.20;99.90;;;;;;5053138;28;20269;-72
2021/11/12 08:45:19;;;;;;;21.23;16.90;;;7.20;99.90;;;;;;5052779;28;20225;-72
2021/11/12 08:47:48;;;;;;;16.60;14.75;;;8.10;99.90;;;;;;5052578;28;20225;-71
2021/11/12 08:50:18;;;;;;;17.48;15.13;;;9.00;99.90;;;;;;5051038;28;20233;-72
2021/11/12 08:52:45;;;;;;;19.25;15.07;;;9.60;99.90;;;;;;5051612;28;20197;-71
2021/11/12 08:55:13;;;;;;;17.13;15.32;;;10.10;99.90;;;;;;5053237;28;20204;-72
2021/11/12 08:57:40;;;;;;;17.90;16.02;;;10.60;99.90;;;;;;5052579;28;20225;-71
2021/11/12 09:00:10;;;;;;;17.92;15.38;;;10.80;99.90;;;;;;5054590;28;20204;-72
2021/11/12 09:02:37;;;;;;;19.23;14.98;;;11.10;99.90;;;;;;5053831;28;20682;-72
2021/11/12 09:05:04;;;;;;;17.50;14.82;;;11.30;99.90;;;;;;5053335;28;20229;-71
2021/11/12 09:07:31;;;;;;;16.50;14.30;;;11.40;99.90;;;;;;5052641;28;20225;-72
2021/11/12 09:09:58;;;;;;;17.80;15.18;;;11.50;99.90;;;;;;5047576;28;20589;-71
2021/11/12 09:12:27;;;;;;;19.67;16.27;;;11.50;99.90;;;;;;5129440;22;20234;-96
2021/11/12 09:14:56;;;;;;;17.52;15.73;;;11.50;99.90;;;;;;5096781;28;20204;-96
2021/11/12 09:17:28;;;;;;;18.10;16.20;;;11.10;99.90;;;;;;5093702;28;20211;-94
2021/11/12 09:19:57;;;;;;;17.83;15.93;;;11.10;99.90;;;;;;5094067;28;20193;-94
2021/11/12 09:22:26;;;;;;;19.48;17.20;;;11.00;99.90;;;;;;5092001;28;20278;-94
2021/11/12 09:24:54;;;;;;;19.02;15.13;;;10.80;99.90;;;;;;5080841;28;20228;-93
2021/11/12 09:27:22;;;;;;;17.17;14.90;;;10.80;99.90;;;;;;5088180;28;20279;-92
2021/11/12 09:32:35;;;;;;;17.75;15.77;;;11.70;99.90;;;;;;5095138;28;20220;-94
2021/11/12 09:35:02;;;;;;;16.75;15.00;;;11.90;99.90;;;;;;5089501;28;20193;-93
2021/11/12 09:37:29;;;;;;;18.50;16.45;;;11.20;99.90;;;;;;5084812;28;20287;-93
2021/11/12 09:39:58;;;;;;;17.95;16.08;;;10.50;99.90;;;;;;5084751;28;20201;-93
2021/11/12 09:42:28;;;;;;;21.83;16.80;;;9.70;99.90;;;;;;5085772;28;20228;-93
2021/11/12 09:45:09;;;;;;;19.92;17.40;;;9.00;99.90;;;;;;5084659;28;20239;-92
2021/11/12 09:47:38;;;;;;;20.88;17.15;;;8.70;99.90;;;;;;5082864;28;20291;-93
2021/11/12 09:50:08;;;;;;;20.30;17.45;;;8.30;99.90;;;;;;5089926;22;20234;-73
2021/11/12 09:52:35;;;;;;;23.27;16.67;;;8.20;99.90;;;;;;5071709;28;20578;-72
2021/11/12 09:55:03;;;;;;;20.30;17.60;;;8.40;99.90;;;;;;5073098;28;20249;-73
2021/11/12 09:57:31;;;;;;;21.42;16.42;;;9.10;99.90;;;;;;5070532;28;20216;-73
2021/11/12 10:00:02;;;;;;;20.63;15.70;;;10.40;99.90;;;;;;5065483;28;20229;-73
2021/11/12 10:02:31;;;;;;;20.52;16.58;;;11.50;99.90;;;;;;5051569;28;20300;-73
2021/11/12 10:04:59;;;;;;;17.52;15.73;;;12.40;99.90;;;;;;5051450;28;20205;-72
2021/11/12 10:07:33;;;;;;;18.43;16.53;;;13.00;99.90;;;;;;5050855;28;20409;-73
2021/11/12 10:10:03;;;;;;;18.73;16.60;;;13.50;99.90;;;;;;5051883;28;20503;-73
2021/11/12 10:12:35;;;;;;;18.87;16.80;;;14.30;99.90;;;;;;5051779;28;20471;-73
2021/11/12 10:15:11;;;;;;;20.97;16.90;;;14.40;99.90;;;;;;5051462;28;20467;-73
2021/11/12 10:17:37;;;;;;;21.17;16.97;;;14.50;99.90;;;;;;5050862;28;20533;-73
2021/11/12 10:20:09;;;;;;;20.53;18.13;;;14.30;99.90;;;;;;5051881;28;20986;-72
2021/11/12 10:22:38;;;;;;;20.50;17.17;;;14.20;99.90;;;;;;5040182;28;20460;-73
2021/11/12 10:25:08;;;;;;;18.90;17.07;;;14.20;99.90;;;;;;5049252;28;20494;-73
2021/11/12 10:27:35;;;;;;;20.70;18.10;;;13.80;99.90;;;;;;5049933;28;20753;-73
2021/11/12 10:30:09;;;;;;;22.73;18.37;;;13.60;99.90;;;;;;5050887;28;20670;-72
2021/11/12 10:32:38;;;;;;;17.50;15.20;;;13.30;99.90;;;;;;5051941;28;20470;-73
2021/11/12 10:35:09;;;;;;;18.90;15.77;;;13.70;99.90;;;;;;5050925;28;20455;-73
2021/11/12 10:37:38;;;;;;;18.20;16.30;;;15.00;99.90;;;;;;5050562;28;20487;-73
2021/11/12 10:40:08;;;;;;;16.97;15.13;;;16.30;99.90;;;;;;5051305;28;20831;-73
2021/11/12 10:42:38;;;;;;;18.33;16.30;;;17.40;98.40;;;;;;5051031;28;20475;-73
2021/11/12 10:45:08;;;;;;;18.60;16.30;;;18.30;97.50;;;;;;5050902;28;20559;-73
2021/11/12 10:47:43;;;;;;;18.30;16.33;;;19.10;96.70;;;;;;5050090;28;20475;-73
2021/11/12 10:50:12;;;;;;;18.53;16.83;;;19.40;96.00;;;;;;5051105;28;20466;-73
2021/11/12 10:52:39;;;;;;;18.77;16.70;;;19.30;95.80;;;;;;5051005;28;20466;-73
2021/11/12 10:55:08;;;;;;;18.10;16.33;;;19.10;95.60;;;;;;5050770;28;20550;-72
2021/11/12 10:57:38;;;;;;;20.03;17.87;;;18.90;94.70;;;;;;5048629;28;20892;-73
2021/11/12 11:00:24;;;;;;;17.67;15.97;;;18.10;96.10;;;;;;5049936;28;20498;-73
2021/11/12 11:02:52;;;;;;;18.53;16.47;;;17.70;96.30;;;;;;5049972;28;20485;-73
2021/11/12 11:05:23;;;;;;;18.50;16.70;;;17.50;96.40;;;;;;5050186;28;20861;-73
2021/11/12 11:07:53;;;;;;;19.93;18.00;;;17.70;96.10;;;;;;5049548;28;20486;-73
2021/11/12 11:10:27;;;;;;;19.37;17.50;;;17.90;96.30;;;;;;5050194;28;20463;-73
2021/11/12 11:12:54;;;;;;;20.30;17.40;;;17.80;96.00;;;;;;5049767;28;20467;-73
2021/11/12 11:15:25;;;;;;;19.10;17.20;;;17.30;96.60;;;;;;5050063;28;20474;-72
2021/11/12 11:18:18;;;;;;;20.17;18.00;;;17.10;96.30;;;;;;5050149;28;20479;-74
2021/11/12 11:20:49;;;;;;;21.43;19.00;;;17.00;96.40;;;;;;5052784;28;20475;-73
2021/11/12 11:23:17;;;;;;;21.37;17.83;;;17.00;96.50;;;;;;5050583;28;20489;-73
2021/11/12 11:25:50;;;;;;;20.13;17.80;;;16.80;96.70;;;;;;5048875;28;21041;-72
2021/11/12 11:28:18;;;;;;;20.93;18.23;;;16.90;96.70;;;;;;5050806;28;20839;-73
2021/11/12 11:30:47;;;;;;;24.10;18.53;;;16.90;96.60;;;;;;5050230;28;20467;-73
2021/11/12 11:33:15;;;;;;;28.97;17.90;;;16.60;96.60;;;;;;5050410;28;20463;-72
2021/11/12 11:35:44;;;;;;;21.63;17.47;;;16.50;96.70;;;;;;5049470;28;20470;-72
2021/11/12 11:38:14;;;;;;;25.93;19.07;;;16.70;96.50;;;;;;5052772;28;20836;-71
2021/11/12 11:40:43;;;;;;;23.50;17.97;;;16.70;96.60;;;;;;5054810;28;20466;-72
2021/11/12 11:43:10;;;;;;;21.20;17.30;;;16.50;96.70;;;;;;5054683;28;20463;-72
2021/11/12 11:45:38;;;;;;;19.50;17.00;;;16.30;96.90;;;;;;5053452;28;20483;-72
2021/11/12 11:48:05;;;;;;;20.97;16.60;;;16.30;96.90;;;;;;5054001;28;20528;-72
2021/11/12 11:50:34;;;;;;;19.97;17.73;;;16.40;96.90;;;;;;5054215;28;20467;-72
2021/11/12 11:53:22;;;;;;;22.33;18.10;;;16.50;96.90;;;;;;5054379;28;20452;-72
2021/11/12 11:55:49;;;;;;;23.83;19.37;;;16.50;97.00;;;;;;5053611;28;20462;-72
2021/11/12 11:58:40;;;;;;;24.27;19.50;;;16.50;97.00;;;;;;5054068;28;20970;-72
2021/11/12 12:01:31;;;;;;;20.30;17.77;;;16.40;97.00;;;;;;5054096;28;20512;-72
2021/11/12 12:04:23;;;;;;;19.13;15.60;;;16.40;97.20;;;;;;5038988;28;20468;-72
2021/11/12 12:07:31;;;;;;;20.08;17.60;;;16.30;97.10;;;;;;5050069;28;20495;-72
2021/11/12 12:10:04;;;;;;;20.33;16.37;;;16.20;97.50;;;;;;5033698;28;20208;-72
2021/11/12 12:12:45;;;;;;;18.63;16.70;;;16.20;97.30;;;;;;5033776;28;20460;-72
2021/11/12 12:15:46;;;;;;;23.38;16.98;;;16.20;97.50;;;;;;5034630;28;20456;-73
2021/11/12 12:18:16;;;;;;;22.43;19.80;;;16.00;97.50;;;;;;5043729;28;20204;-72
2021/11/12 12:21:02;;;;;;;21.60;18.40;;;15.70;97.90;;;;;;5053290;28;20467;-72
2021/11/12 13:22:53;;;;;;;18.45;16.10;;;12.20;99.90;;;;;;5052926;28;20299;-70
2021/11/12 13:25:33;;;;;;;18.07;15.33;;;12.30;99.90;;;;;;5052563;28;20670;-70
2021/11/12 13:28:08;;;;;;;18.50;16.15;;;12.40;99.90;;;;;;5052061;28;20502;-70
2021/11/12 13:30:35;;;;;;;19.75;17.67;;;12.40;99.90;;;;;;5052738;28;20201;-71
2021/11/12 13:33:04;;;;;;;21.15;16.55;;;12.30;99.90;;;;;;5052424;28;20856;-70
2021/11/12 13:35:32;;;;;;;23.90;16.20;;;12.30;99.90;;;;;;5052355;28;20204;-70
2021/11/12 13:37:59;;;;;;;20.60;16.35;;;12.30;99.90;;;;;;5051876;28;20228;-70
2021/11/12 13:40:30;;;;;;;19.45;16.77;;;12.30;99.90;;;;;;5052603;28;20212;-71
2021/11/12 13:42:57;;;;;;;18.98;16.73;;;12.10;99.90;;;;;;5052226;28;20201;-71
2021/11/12 13:45:29;;;;;;;21.02;17.15;;;11.90;99.90;;;;;;5052169;28;20197;-71
2021/11/12 13:48:01;;;;;;;24.15;18.60;;;11.70;99.90;;;;;;5051342;28;20225;-70
2021/11/12 13:50:29;;;;;;;22.75;19.13;;;11.30;99.90;;;;;;5052360;28;20564;-70
2021/11/12 13:53:01;;;;;;;25.70;20.15;;;11.10;99.90;;;;;;5051748;28;20216;-71
2021/11/12 13:55:34;;;;;;;26.13;20.67;;;10.90;99.90;;;;;;5051934;28;20699;-71
2021/11/12 13:58:04;;;;;;;22.80;19.20;;;10.80;99.90;;;;;;5051344;28;20221;-70
2021/11/12 14:00:31;;;;;;;26.10;21.40;;;10.70;99.90;;;;;;5050900;28;20687;-70
2021/11/12 14:03:04;;;;;;;23.42;19.85;;;10.50;99.90;;;;;;5051685;28;20691;-70
2021/11/12 14:05:33;;;;;;;27.63;21.00;;;10.30;99.90;;;;;;5052150;28;20209;-70
2021/11/12 14:08:05;;;;;;;23.08;19.65;;;10.10;99.90;;;;;;5051252;28;20232;-70
2021/11/12 14:10:35;;;;;;;23.80;20.52;;;10.00;99.90;;;;;;5052463;28;20215;-70
2021/11/12 14:13:03;;;;;;;25.85;21.67;;;9.80;99.90;;;;;;5051999;28;20204;-70
2021/11/12 14:15:32;;;;;;;27.35;20.83;;;9.70;99.90;;;;;;5051798;28;20212;-70
2021/11/12 14:18:19;;;;;;;27.50;20.98;;;9.60;99.90;;;;;;5051204;28;20233;-70
2021/11/12 14:20:59;;;;;;;31.40;22.98;;;9.50;99.90;;;;;;5052146;28;20205;-70
2021/11/12 14:23:30;;;;;;;28.27;23.38;;;9.40;99.90;;;;;;5051901;28;20208;-71
2021/11/12 14:26:21;;;;;;;30.42;22.27;;;9.40;99.90;;;;;;5051119;28;20236;-70
2021/11/12 14:28:52;;;;;;;28.10;23.02;;;9.40;99.90;;;;;;5051809;28;20225;-70
2021/11/12 14:31:48;;;;;;;33.30;23.20;;;9.40;99.90;;;;;;5051777;28;20643;-70
2021/11/12 14:34:28;;;;;;;31.23;25.17;;;9.40;99.90;;;;;;5051319;28;20205;-70
2021/11/12 14:37:01;;;;;;;33.00;24.52;;;9.20;99.90;;;;;;5050852;28;20270;-70
2021/11/12 14:39:42;;;;;;;31.52;22.10;;;9.10;99.90;;;;;;5051747;28;20208;-70
2021/11/12 14:45:14;;;;;;;31.15;24.25;;;8.80;99.90;;;;;;5015111;28;20343;-71
2021/11/12 14:47:48;;;;;;;31.23;23.15;;;8.60;99.90;;;;;;5050496;28;20228;-70
2021/11/12 14:50:26;;;;;;;31.55;24.33;;;8.40;99.90;;;;;;5051394;28;20204;-70
2021/11/12 14:53:17;;;;;;;32.85;24.75;;;8.10;99.90;;;;;;5051189;28;20209;-70
2021/11/12 14:55:46;;;;;;;30.88;20.83;;;7.90;99.90;;;;;;5050731;28;20209;-70
2021/11/12 14:58:16;;;;;;;32.97;23.80;;;7.70;99.90;;;;;;5051002;28;20208;-70
2021/11/12 15:00:44;;;;;;;27.08;21.63;;;7.50;99.90;;;;;;5050972;28;20274;-70
2021/11/12 15:03:10;;;;;;;29.10;22.02;;;7.20;99.90;;;;;;5051197;28;20226;-70
2021/11/12 15:05:38;;;;;;;28.00;22.83;;;7.10;99.90;;;;;;5050913;28;20205;-70
2021/11/12 15:08:11;;;;;;;29.33;19.85;;;7.00;99.90;;;;;;5050505;28;20271;-70
2021/11/12 15:10:39;;;;;;;24.90;19.33;;;6.80;99.90;;;;;;5050668;28;20721;-71
2021/11/12 15:13:06;;;;;;;23.63;19.85;;;6.60;99.90;;;;;;5050244;28;20277;-70
2021/11/12 15:15:33;;;;;;;25.98;19.70;;;6.50;99.90;;;;;;5050500;28;20207;-70
2021/11/12 15:18:04;;;;;;;27.13;20.20;;;6.40;99.90;;;;;;5050027;28;20213;-70
2021/11/12 15:20:31;;;;;;;26.90;20.70;;;6.30;99.90;;;;;;5050869;28;20262;-70
2021/11/12 15:23:16;;;;;;;26.33;19.17;;;6.20;99.90;;;;;;5050720;28;20197;-70
2021/11/12 15:25:50;;;;;;;27.48;20.35;;;6.10;99.90;;;;;;5050231;28;20669;-70
2021/11/12 15:28:26;;;;;;;24.98;18.70;;;6.00;99.90;;;;;;5050282;28;20221;-70
2021/11/12 15:30:58;;;;;;;22.88;17.40;;;5.90;99.90;;;;;;5050497;28;20201;-70
2021/11/12 15:33:25;;;;;;;21.50;16.27;;;5.80;99.90;;;;;;5050616;28;20197;-71
2021/11/12 15:35:53;;;;;;;25.65;18.42;;;5.70;99.90;;;;;;5050141;28;20201;-71
2021/11/12 15:38:23;;;;;;;19.17;16.90;;;5.60;99.90;;;;;;5050198;28;20664;-71
2021/11/12 15:40:57;;;;;;;22.95;16.83;;;5.50;99.90;;;;;;5050662;28;20202;-71
2021/11/12 15:43:26;;;;;;;21.85;16.73;;;5.50;99.90;;;;;;5050339;28;20299;-70
2021/11/12 15:46:09;;;;;;;23.65;17.35;;;5.40;99.90;;;;;;5049450;28;20300;-70
2021/11/12 15:48:38;;;;;;;24.15;17.33;;;5.40;99.90;;;;;;5050047;28;20232;-70
2021/11/12 15:53:49;;;;;;;21.88;15.65;;;5.30;99.90;;;;;;5046941;28;20281;-70
2021/11/12 15:56:38;;;;;;;21.13;16.05;;;5.20;99.90;;;;;;5049613;28;20225;-71
2021/11/12 15:59:11;;;;;;;24.95;17.65;;;5.20;99.90;;;;;;5049669;28;20204;-70
2021/11/12 16:09:52;;;;;;;22.05;15.95;;;4.90;99.90;;;;;;5039407;28;20201;-69
2021/11/12 16:15:19;;;;;;;20.85;15.73;;;4.80;99.90;;;;;;5034081;28;20197;-69
2021/11/12 16:17:58;;;;;;;25.45;17.17;;;4.80;99.90;;;;;;5049736;28;20237;-69
2021/11/12 16:20:40;;;;;;;19.30;15.85;;;4.70;99.90;;;;;;5050033;28;20201;-69
2021/11/12 16:26:02;;;;;;;20.88;16.05;;;4.50;99.90;;;;;;5016925;28;20796;-69
2021/11/12 16:28:33;;;;;;;22.15;16.27;;;4.50;99.90;;;;;;5053748;28;20708;-69
2021/11/12 16:31:02;;;;;;;21.02;16.25;;;4.50;99.90;;;;;;5054011;28;20200;-69
2021/11/12 16:33:30;;;;;;;24.30;17.45;;;4.40;99.90;;;;;;5053764;28;20216;-69
2021/11/12 16:36:01;;;;;;;24.17;17.98;;;4.40;99.90;;;;;;5052977;28;20304;-69
2021/11/12 16:38:31;;;;;;;24.30;17.45;;;4.40;99.90;;;;;;5053813;28;20238;-70
2021/11/12 16:41:02;;;;;;;21.13;16.52;;;4.30;99.90;;;;;;5053644;28;20205;-70
2021/11/12 16:43:35;;;;;;;22.48;16.67;;;4.30;99.90;;;;;;5053246;28;20427;-70
2021/11/12 16:46:15;;;;;;;27.00;19.75;;;4.30;99.90;;;;;;5052701;28;20247;-70
2021/11/12 16:48:57;;;;;;;25.40;17.98;;;4.30;99.90;;;;;;5053165;28;20703;-69
2021/11/12 16:54:30;;;;;;;21.45;16.45;;;4.30;99.90;;;;;;4991311;28;20281;-70
2021/11/12 16:57:14;;;;;;;23.75;17.27;;;4.20;99.90;;;;;;4991082;28;20241;-70